EGWC - Cosford Royal Air Force Base
Distance from station: E 5mi, 14km
Updated: 12/15/2017 6:50am
NOT Current
Mostly Cloudy
Mostly Cloudy
 Wind from NNW
Wind: NNW 10 mph , 17 km/h
Temperature: 41°F , 5°C
Wind Chill: 35°F , 2°C
Dew Point: 34°F , 1°C
Humidity: 76%
Barometer: 29.68 inHg , 1005 hPa
Clouds: Mostly Cloudy
Visibility: 6 miles , 10 km
Cloud details: Few Clouds 1500 ft
Mostly Cloudy 2000 ft
2017/12/15 14:50 EGWC 151450Z 34009KT 9999 FEW015 BKN020 05/01 Q1005 WHT